createdAt,value
2023-01-03T00:00:11.988Z,101211.84
2023-01-03T00:02:59.227Z,101216.41
2023-01-03T00:05:26.017Z,101211.41
2023-01-03T00:07:53.051Z,101218.50
2023-01-03T00:10:19.800Z,101220.28
2023-01-03T00:12:46.887Z,101220.22
2023-01-03T00:15:16.767Z,101223.63
2023-01-03T00:17:44.115Z,101225.31
2023-01-03T00:20:11.378Z,101233.19
2023-01-03T00:22:38.534Z,101225.56
2023-01-03T00:25:05.501Z,101235.88
2023-01-03T00:27:32.540Z,101237.69
2023-01-03T00:29:59.297Z,101242.06
2023-01-03T00:32:26.677Z,101241.16
2023-01-03T00:34:53.548Z,101242.00
2023-01-03T00:37:20.647Z,101250.00
2023-01-03T00:39:47.454Z,101244.75
2023-01-03T00:42:14.557Z,101248.41
2023-01-03T00:44:41.343Z,101252.25
2023-01-03T00:47:08.726Z,101251.75
2023-01-03T00:49:35.546Z,101255.41
2023-01-03T00:52:02.681Z,101255.53
2023-01-03T00:54:29.457Z,101259.06
2023-01-03T00:56:56.668Z,101246.75
2023-01-03T00:59:23.456Z,101254.75
2023-01-03T01:01:56.267Z,101260.78
2023-01-03T01:04:29.663Z,101259.91
2023-01-03T01:07:00.254Z,101268.59
2023-01-03T01:09:35.837Z,101254.63
2023-01-03T01:12:04.834Z,101257.06
2023-01-03T01:14:33.721Z,101261.63
2023-01-03T01:17:06.368Z,101257.13
2023-01-03T01:19:51.317Z,101262.78
2023-01-03T01:22:18.355Z,101262.72
2023-01-03T01:24:45.564Z,101261.63
2023-01-03T01:27:12.670Z,101266.78
2023-01-03T01:29:39.734Z,101261.34
2023-01-03T01:32:07.249Z,101257.81
2023-01-03T01:34:34.349Z,101261.16
2023-01-03T01:37:01.647Z,101254.28
2023-01-03T01:39:29.612Z,101263.91
2023-01-03T01:42:20.317Z,101255.81
2023-01-03T01:44:53.674Z,101250.66
2023-01-03T01:47:21.223Z,101249.00
2023-01-03T01:49:52.302Z,101243.84
2023-01-03T01:52:21.240Z,101255.25
2023-01-03T01:54:50.193Z,101249.03
2023-01-03T01:57:21.045Z,101263.00
2023-01-03T01:59:48.469Z,101260.34
2023-01-03T02:02:20.404Z,101258.72
2023-01-03T02:04:50.672Z,101262.03
2023-01-03T02:07:20.829Z,101269.09
2023-01-03T02:09:52.424Z,101265.06
2023-01-03T02:12:53.341Z,101261.13
2023-01-03T02:15:29.861Z,101266.66
2023-01-03T02:18:29.284Z,101268.31
2023-01-03T02:21:01.739Z,101265.66
2023-01-03T02:23:43.839Z,101265.81
2023-01-03T02:26:41.424Z,101272.66
2023-01-03T02:29:39.716Z,101261.19
2023-01-03T02:32:16.830Z,101265.13
2023-01-03T02:35:06.257Z,101265.28
2023-01-03T02:37:57.684Z,101259.19
2023-01-03T02:40:36.373Z,101274.88
2023-01-03T02:43:30.717Z,101278.50
2023-01-03T02:46:21.327Z,101281.13
2023-01-03T02:49:10.256Z,101277.31
2023-01-03T02:51:44.534Z,101282.00
2023-01-03T02:54:18.626Z,101283.06
2023-01-03T02:57:02.970Z,101287.34
2023-01-03T02:59:34.126Z,101281.03
2023-01-03T03:02:04.589Z,101285.47
2023-01-03T03:04:35.132Z,101281.94
2023-01-03T03:07:11.476Z,101276.00
2023-01-03T03:09:58.202Z,101280.41
2023-01-03T03:12:51.353Z,101274.06
2023-01-03T03:15:23.017Z,101278.41
2023-01-03T03:17:54.297Z,101275.19
2023-01-03T03:20:39.959Z,101274.59
2023-01-03T03:23:31.381Z,101271.13
2023-01-03T03:26:09.835Z,101277.13
2023-01-03T03:28:43.440Z,101277.81
2023-01-03T03:31:43.515Z,101280.59
2023-01-03T03:34:18.512Z,101284.06
2023-01-03T03:37:03.178Z,101295.41
2023-01-03T03:39:50.780Z,101292.75
2023-01-03T03:42:36.080Z,101294.56
2023-01-03T03:45:16.139Z,101287.72
2023-01-03T03:47:54.179Z,101296.28
2023-01-03T03:50:48.673Z,101291.72
2023-01-03T03:53:18.715Z,101288.25
2023-01-03T03:55:54.286Z,101286.50
2023-01-03T03:58:26.980Z,101291.56
2023-01-03T04:00:55.814Z,101291.03
2023-01-03T04:03:24.041Z,101292.09
2023-01-03T04:05:58.023Z,101295.47
2023-01-03T04:08:25.016Z,101293.47
2023-01-03T04:10:52.768Z,101296.22
2023-01-03T04:13:19.614Z,101296.06
2023-01-03T04:15:46.702Z,101292.09
2023-01-03T04:18:13.476Z,101292.09
2023-01-03T04:20:42.612Z,101296.81
2023-01-03T04:23:10.400Z,101295.19
2023-01-03T04:25:37.430Z,101287.44
2023-01-03T04:28:04.363Z,101290.22
2023-01-03T04:30:31.497Z,101296.34
2023-01-03T04:32:58.364Z,101298.94
2023-01-03T04:35:25.459Z,101294.59
2023-01-03T04:37:52.296Z,101295.69
2023-01-03T04:40:19.385Z,101289.63
2023-01-03T04:43:05.012Z,101288.78
2023-01-03T04:45:32.208Z,101293.41
2023-01-03T04:47:59.115Z,101299.59
2023-01-03T04:50:26.222Z,101296.16
2023-01-03T04:52:53.010Z,101303.25
2023-01-03T04:55:20.125Z,101300.50
2023-01-03T04:57:46.974Z,101300.44
2023-01-03T05:00:14.509Z,101298.88
2023-01-03T05:02:41.456Z,101309.34
2023-01-03T05:05:09.310Z,101306.78
2023-01-03T05:07:36.435Z,101313.06
2023-01-03T05:10:03.742Z,101316.63
2023-01-03T05:12:30.636Z,101313.16
2023-01-03T05:14:57.755Z,101314.06
2023-01-03T05:17:24.517Z,101316.69
2023-01-03T05:20:10.105Z,101319.38
2023-01-03T05:22:55.733Z,101326.44
2023-01-03T05:25:41.734Z,101334.06
2023-01-03T05:28:12.322Z,101328.97
2023-01-03T05:30:44.173Z,101341.28
2023-01-03T05:33:10.979Z,101344.16
2023-01-03T05:35:38.364Z,101341.63
2023-01-03T05:38:05.270Z,101345.97
2023-01-03T05:40:37.638Z,101352.09
2023-01-03T05:43:08.151Z,101352.88
2023-01-03T05:45:36.576Z,101359.38
2023-01-03T05:48:03.634Z,101361.19
2023-01-03T05:50:30.684Z,101364.78
2023-01-03T05:52:57.497Z,101363.03
2023-01-03T05:55:24.841Z,101366.28
2023-01-03T05:57:52.537Z,101366.28
2023-01-03T06:00:20.556Z,101364.50
2023-01-03T06:02:47.773Z,101371.41
2023-01-03T06:05:14.972Z,101371.47
2023-01-03T06:07:42.288Z,101367.16
2023-01-03T06:10:09.805Z,101368.66
2023-01-03T06:12:36.839Z,101358.31
2023-01-03T06:15:04.433Z,101364.31
2023-01-03T06:17:49.768Z,101370.41
2023-01-03T06:20:17.064Z,101366.97
2023-01-03T06:22:43.867Z,101367.78
2023-01-03T06:25:11.007Z,101368.81
2023-01-03T06:27:37.822Z,101368.56
2023-01-03T06:30:05.537Z,101368.28
2023-01-03T06:32:32.531Z,101371.72
2023-01-03T06:34:59.613Z,101374.25
2023-01-03T06:37:26.359Z,101369.88
2023-01-03T06:39:53.427Z,101373.28
2023-01-03T06:42:39.263Z,101380.06
2023-01-03T06:45:26.197Z,101380.63
2023-01-03T06:48:11.541Z,101381.28
2023-01-03T06:50:59.018Z,101388.78
2023-01-03T06:53:30.941Z,101386.78
2023-01-03T06:55:59.310Z,101392.88
2023-01-03T06:58:26.125Z,101401.53
2023-01-03T07:00:54.851Z,101408.25
2023-01-03T07:03:22.701Z,101416.72
2023-01-03T07:05:50.138Z,101410.78
2023-01-03T07:08:16.969Z,101412.47
2023-01-03T07:10:44.142Z,101414.09
2023-01-03T07:13:29.713Z,101420.28
2023-01-03T07:15:56.847Z,101424.53
2023-01-03T07:18:23.749Z,101428.72
2023-01-03T07:20:50.880Z,101424.19
2023-01-03T07:23:17.829Z,101426.75
2023-01-03T07:25:44.921Z,101427.47
2023-01-03T07:28:13.259Z,101429.16
2023-01-03T07:30:43.149Z,101429.00
2023-01-03T07:33:12.113Z,101422.81
2023-01-03T07:35:39.432Z,101427.03
2023-01-03T07:38:10.891Z,101418.09
2023-01-03T07:40:38.905Z,101424.94
2023-01-03T07:43:24.386Z,101435.63
2023-01-03T07:45:51.640Z,101433.50
2023-01-03T07:48:18.463Z,101438.75
2023-01-03T07:50:45.828Z,101440.50
2023-01-03T07:53:19.149Z,101436.81
2023-01-03T07:55:46.198Z,101443.81
2023-01-03T07:58:13.189Z,101444.56
2023-01-03T08:00:41.340Z,101447.03
2023-01-03T08:03:11.620Z,101451.25
2023-01-03T08:05:39.184Z,101459.84
2023-01-03T08:08:06.640Z,101458.13
2023-01-03T08:10:52.263Z,101466.78
2023-01-03T08:13:19.669Z,101468.38
2023-01-03T08:15:52.335Z,101466.59
2023-01-03T08:18:22.200Z,101458.63
2023-01-03T08:20:49.368Z,101470.00
2023-01-03T08:23:16.181Z,101472.56
2023-01-03T08:25:43.386Z,101473.44
2023-01-03T08:28:11.164Z,101469.94
2023-01-03T08:30:44.426Z,101474.09
2023-01-03T08:33:13.733Z,101477.50
2023-01-03T08:35:53.146Z,101478.44
2023-01-03T08:38:25.492Z,101479.34
2023-01-03T08:40:53.720Z,101481.22
2023-01-03T08:43:20.980Z,101483.56
2023-01-03T08:45:49.257Z,101474.75
2023-01-03T08:48:19.631Z,101482.19
2023-01-03T08:50:47.347Z,101486.13
2023-01-03T08:53:14.224Z,101483.56
2023-01-03T08:55:44.278Z,101481.84
2023-01-03T08:58:11.480Z,101483.56
2023-01-03T09:00:38.765Z,101486.19
2023-01-03T09:03:05.863Z,101499.88
2023-01-03T09:05:33.154Z,101493.81
2023-01-03T09:08:00.076Z,101497.31
2023-01-03T09:10:27.426Z,101496.28
2023-01-03T09:12:54.484Z,101494.69
2023-01-03T09:15:21.777Z,101499.84
2023-01-03T09:17:49.472Z,101498.06
2023-01-03T09:20:18.728Z,101495.63
2023-01-03T09:22:47.898Z,101492.19
2023-01-03T09:25:15.662Z,101498.25
2023-01-03T09:27:48.533Z,101496.25
2023-01-03T09:30:17.346Z,101493.66
2023-01-03T09:32:44.182Z,101504.22
2023-01-03T09:35:11.433Z,101502.50
2023-01-03T09:37:39.171Z,101504.97
2023-01-03T09:40:09.438Z,101505.59
2023-01-03T09:42:56.402Z,101505.75
2023-01-03T09:45:33.370Z,101499.38
2023-01-03T09:48:03.310Z,101501.75
2023-01-03T09:50:57.345Z,101501.91
2023-01-03T09:53:54.895Z,101500.22
2023-01-03T09:56:40.916Z,101496.25
2023-01-03T09:59:32.453Z,101495.84
2023-01-03T10:02:40.630Z,101499.91
2023-01-03T10:05:26.327Z,101497.00
2023-01-03T10:08:05.566Z,101486.28
2023-01-03T10:10:41.112Z,101482.72
2023-01-03T10:13:34.446Z,101488.75
2023-01-03T10:16:40.314Z,101493.00
2023-01-03T10:19:09.997Z,101500.84
2023-01-03T10:21:45.586Z,101495.19
2023-01-03T10:24:21.337Z,101501.31
2023-01-03T10:27:13.643Z,101496.16
2023-01-03T10:29:41.026Z,101491.97
2023-01-03T10:32:27.419Z,101482.97
2023-01-03T10:35:16.511Z,101486.75
2023-01-03T10:37:44.579Z,101482.19
2023-01-03T10:40:13.822Z,101481.81
2023-01-03T10:42:42.491Z,101477.97
2023-01-03T10:45:12.609Z,101483.75
2023-01-03T10:47:39.456Z,101488.25
2023-01-03T10:50:08.228Z,101481.09
2023-01-03T10:52:39.941Z,101468.56
2023-01-03T10:55:16.439Z,101466.94
2023-01-03T10:57:46.044Z,101464.69
2023-01-03T11:00:22.435Z,101466.63
2023-01-03T11:02:50.510Z,101458.06
2023-01-03T11:05:21.452Z,101457.44
2023-01-03T11:07:56.526Z,101461.63
2023-01-03T11:10:36.549Z,101459.91
2023-01-03T11:13:22.965Z,101462.97
2023-01-03T11:16:01.638Z,101458.41
2023-01-03T11:18:30.831Z,101451.16
2023-01-03T11:21:29.391Z,101445.00
2023-01-03T11:24:37.942Z,101454.00
2023-01-03T11:27:32.581Z,101446.41
2023-01-03T11:30:11.420Z,101447.44
2023-01-03T11:32:56.748Z,101451.84
2023-01-03T11:35:40.173Z,101444.38
2023-01-03T11:38:25.230Z,101456.00
2023-01-03T11:41:11.953Z,101451.09
2023-01-03T11:44:02.122Z,101450.47
2023-01-03T11:46:40.891Z,101449.53
2023-01-03T11:49:08.073Z,101452.22
2023-01-03T11:52:14.069Z,101451.78
2023-01-03T11:55:00.298Z,101450.09
2023-01-03T11:57:44.900Z,101447.66
2023-01-03T12:00:34.910Z,101443.84
2023-01-03T12:03:19.834Z,101453.78
2023-01-03T12:05:54.452Z,101447.22
2023-01-03T12:08:49.438Z,101435.72
2023-01-03T12:11:31.648Z,101440.59
2023-01-03T12:14:13.053Z,101436.25
2023-01-03T12:16:54.383Z,101428.03
2023-01-03T12:19:43.169Z,101446.47
2023-01-03T12:22:56.331Z,101443.16
2023-01-03T12:25:35.823Z,101443.13
2023-01-03T12:28:15.621Z,101442.03
2023-01-03T12:31:02.470Z,101427.84
2023-01-03T12:33:42.826Z,101425.25
2023-01-03T12:36:33.947Z,101422.75
2023-01-03T12:39:07.384Z,101422.88
2023-01-03T12:42:02.085Z,101433.84
2023-01-03T12:44:40.196Z,101434.88
2023-01-03T12:47:17.429Z,101420.31
2023-01-03T12:50:06.934Z,101425.53
2023-01-03T12:52:37.373Z,101434.09
2023-01-03T12:55:23.567Z,101431.41
2023-01-03T12:58:14.370Z,101428.81
2023-01-03T13:01:08.545Z,101434.94
2023-01-03T13:03:52.692Z,101444.81
2023-01-03T13:06:31.925Z,101443.44
2023-01-03T13:09:04.324Z,101433.13
2023-01-03T13:11:51.579Z,101428.88
2023-01-03T13:14:27.416Z,101432.47
2023-01-03T13:17:16.530Z,101438.44
2023-01-03T13:19:57.080Z,101434.97
2023-01-03T13:22:35.142Z,101443.03
2023-01-03T13:25:28.759Z,101443.28
2023-01-03T13:27:58.968Z,101445.47
2023-01-03T13:30:32.001Z,101450.53
2023-01-03T13:33:11.784Z,101449.59
2023-01-03T13:35:45.152Z,101447.41
2023-01-03T13:38:24.650Z,101451.81
2023-01-03T13:43:51.728Z,101458.59
2023-01-03T13:46:29.360Z,101449.72
2023-01-03T13:49:04.544Z,101448.72
2023-01-03T13:51:41.005Z,101454.72
2023-01-03T13:54:35.160Z,101455.94
2023-01-03T13:57:05.965Z,101450.13
2023-01-03T13:59:42.957Z,101450.84
2023-01-03T14:02:09.797Z,101454.38
2023-01-03T14:04:49.181Z,101455.13
2023-01-03T14:07:21.821Z,101446.28
2023-01-03T14:10:07.109Z,101454.25
2023-01-03T14:12:58.496Z,101454.03
2023-01-03T14:15:27.167Z,101457.63
2023-01-03T14:17:57.976Z,101460.66
2023-01-03T14:20:31.013Z,101457.16
2023-01-03T14:23:17.140Z,101465.38
2023-01-03T14:25:51.098Z,101470.47
2023-01-03T14:28:25.458Z,101470.47
2023-01-03T14:30:55.656Z,101473.09
2023-01-03T14:33:44.294Z,101484.34
2023-01-03T14:36:17.453Z,101484.06
2023-01-03T14:38:58.946Z,101485.63
2023-01-03T14:41:34.968Z,101473.75
2023-01-03T14:44:07.154Z,101479.16
2023-01-03T14:46:35.966Z,101477.88
2023-01-03T14:49:07.201Z,101487.66
2023-01-03T14:51:36.893Z,101473.94
2023-01-03T14:54:05.169Z,101472.22
2023-01-03T14:56:32.798Z,101485.50
2023-01-03T14:59:00.898Z,101485.50
2023-01-03T15:01:29.126Z,101490.00
2023-01-03T15:03:56.941Z,101483.91
2023-01-03T15:06:26.433Z,101491.00
2023-01-03T15:08:56.332Z,101487.44
2023-01-03T15:11:56.966Z,101488.13
2023-01-03T15:14:26.117Z,101482.81
2023-01-03T15:17:03.185Z,101492.47
2023-01-03T15:19:31.769Z,101492.31
2023-01-03T15:22:22.287Z,101496.81
2023-01-03T15:24:53.792Z,101505.25
2023-01-03T15:27:39.294Z,101505.25
2023-01-03T15:30:14.584Z,101509.59
2023-01-03T15:32:51.998Z,101511.13
2023-01-03T15:35:35.852Z,101511.94
2023-01-03T15:38:08.302Z,101507.47
2023-01-03T15:40:37.328Z,101521.34
2023-01-03T15:43:23.286Z,101520.56
2023-01-03T15:46:03.356Z,101531.97
2023-01-03T15:48:35.447Z,101523.19
2023-01-03T15:51:04.466Z,101534.72
2023-01-03T15:53:37.830Z,101521.34
2023-01-03T15:56:17.603Z,101530.72
2023-01-03T15:58:45.833Z,101529.97
2023-01-03T16:01:13.389Z,101529.19
2023-01-03T16:03:41.105Z,101541.31
2023-01-03T16:06:08.481Z,101552.41
2023-01-03T16:08:38.689Z,101549.84
2023-01-03T16:11:16.771Z,101545.44
2023-01-03T16:13:53.524Z,101553.44
2023-01-03T16:16:27.374Z,101559.38
2023-01-03T16:18:55.969Z,101552.34
2023-01-03T16:21:24.185Z,101554.97
2023-01-03T16:23:51.479Z,101547.94
2023-01-03T16:26:19.622Z,101554.09
2023-01-03T16:28:46.773Z,101552.19
2023-01-03T16:31:18.203Z,101554.84
2023-01-03T16:33:47.738Z,101557.59
2023-01-03T16:36:31.597Z,101566.34
2023-01-03T16:38:59.571Z,101555.81
2023-01-03T16:41:26.618Z,101565.38
2023-01-03T16:43:54.474Z,101565.25
2023-01-03T16:46:23.941Z,101565.13
2023-01-03T16:48:57.899Z,101569.63
2023-01-03T16:51:27.686Z,101568.78
2023-01-03T16:53:56.854Z,101574.09
2023-01-03T16:56:24.894Z,101577.53
2023-01-03T16:58:53.313Z,101571.34
2023-01-03T17:01:21.170Z,101585.25
2023-01-03T17:03:49.076Z,101584.38
2023-01-03T17:06:33.444Z,101583.59
2023-01-03T17:09:16.656Z,101591.28
2023-01-03T17:11:45.012Z,101591.34
2023-01-03T17:14:19.859Z,101601.06
2023-01-03T17:16:47.858Z,101600.09
2023-01-03T17:22:20.483Z,101602.06
2023-01-03T17:24:49.908Z,101597.41
2023-01-03T17:27:29.381Z,101596.38
2023-01-03T17:30:03.561Z,101606.03
2023-01-03T17:32:30.898Z,101600.84
2023-01-03T17:35:00.651Z,101606.31
2023-01-03T17:37:45.478Z,101608.94
2023-01-03T17:40:31.063Z,101611.34
2023-01-03T17:43:00.801Z,101615.81
2023-01-03T17:45:47.008Z,101610.66
2023-01-03T17:48:32.906Z,101612.44
2023-01-03T17:51:01.705Z,101624.50
2023-01-03T17:53:29.593Z,101622.72
2023-01-03T17:55:57.359Z,101621.81
2023-01-03T17:58:37.951Z,101621.06
2023-01-03T18:01:08.139Z,101622.09
2023-01-03T18:03:36.562Z,101635.19
2023-01-03T18:06:27.352Z,101633.47
2023-01-03T18:08:56.487Z,101621.97
2023-01-03T18:11:27.068Z,101629.00
2023-01-03T18:14:05.709Z,101626.50
2023-01-03T18:16:34.535Z,101636.94
2023-01-03T18:19:05.989Z,101637.75
2023-01-03T18:21:34.822Z,101629.84
2023-01-03T18:24:29.254Z,101633.47
2023-01-03T18:27:01.221Z,101641.34
2023-01-03T18:29:30.318Z,101636.00
2023-01-03T18:32:00.659Z,101644.59
2023-01-03T18:34:29.997Z,101643.75
2023-01-03T18:37:06.561Z,101641.41
2023-01-03T18:39:33.735Z,101650.19
2023-01-03T18:42:20.097Z,101649.34
2023-01-03T18:44:49.959Z,101660.69
2023-01-03T18:47:18.796Z,101655.84
2023-01-03T18:49:45.999Z,101655.66
2023-01-03T18:52:38.690Z,101657.34
2023-01-03T18:55:13.664Z,101650.31
2023-01-03T18:57:48.234Z,101646.88
2023-01-03T19:00:25.681Z,101653.94
2023-01-03T19:02:54.194Z,101651.34
2023-01-03T19:05:21.805Z,101639.13
2023-01-03T19:07:51.265Z,101635.75
2023-01-03T19:10:25.508Z,101642.91
2023-01-03T19:12:55.931Z,101646.47
2023-01-03T19:15:29.252Z,101639.59
2023-01-03T19:17:57.767Z,101650.22
2023-01-03T19:20:32.241Z,101655.41
2023-01-03T19:22:59.901Z,101653.59
2023-01-03T19:25:30.879Z,101652.78
2023-01-03T19:28:04.283Z,101647.44
2023-01-03T19:30:39.928Z,101656.25
2023-01-03T19:33:13.408Z,101657.94
2023-01-03T19:35:41.038Z,101647.31
2023-01-03T19:38:14.568Z,101652.59
2023-01-03T19:40:45.433Z,101648.16
2023-01-03T19:43:24.914Z,101651.50
2023-01-03T19:45:52.095Z,101655.00
2023-01-03T19:48:22.251Z,101649.75
2023-01-03T19:50:50.844Z,101655.84
2023-01-03T19:53:22.942Z,101654.19
2023-01-03T19:55:52.116Z,101660.47
2023-01-03T19:58:32.785Z,101661.13
2023-01-03T20:01:00.711Z,101653.31
2023-01-03T20:03:35.064Z,101662.97
2023-01-03T20:06:02.540Z,101664.75
2023-01-03T20:08:42.711Z,101659.50
2023-01-03T20:11:21.171Z,101656.81
2023-01-03T20:13:52.726Z,101658.69
2023-01-03T20:16:29.834Z,101670.09
2023-01-03T20:19:06.492Z,101667.47
2023-01-03T20:21:33.744Z,101655.94
2023-01-03T20:24:20.412Z,101670.09
2023-01-03T20:26:50.733Z,101668.28
2023-01-03T20:29:18.483Z,101670.69
2023-01-03T20:31:48.649Z,101670.97
2023-01-03T20:34:16.384Z,101676.22
2023-01-03T20:36:49.470Z,101674.56
2023-01-03T20:39:26.566Z,101675.41
2023-01-03T20:41:58.521Z,101679.03
2023-01-03T20:44:29.439Z,101673.78
2023-01-03T20:46:57.001Z,101665.00
2023-01-03T20:49:31.890Z,101676.44
2023-01-03T20:52:01.284Z,101673.78
2023-01-03T20:54:28.933Z,101664.16
2023-01-03T20:56:58.951Z,101653.81
2023-01-03T20:59:31.761Z,101664.63
2023-01-03T21:01:59.159Z,101651.38
2023-01-03T21:04:29.427Z,101654.00
2023-01-03T21:06:58.062Z,101659.38
2023-01-03T21:09:25.692Z,101654.13
2023-01-03T21:11:52.830Z,101646.25
2023-01-03T21:14:23.641Z,101649.78
2023-01-03T21:16:51.034Z,101663.50
2023-01-03T21:19:23.217Z,101654.22
2023-01-03T21:21:52.849Z,101659.50
2023-01-03T21:24:22.898Z,101659.50
2023-01-03T21:26:50.529Z,101662.97
2023-01-03T21:29:22.085Z,101662.97
2023-01-03T21:31:49.476Z,101668.28
2023-01-03T21:34:21.159Z,101665.69
2023-01-03T21:36:49.134Z,101673.53
2023-01-03T21:39:17.195Z,101678.00
2023-01-03T21:42:03.182Z,101677.84
2023-01-03T21:44:30.918Z,101671.81
2023-01-03T21:47:00.663Z,101669.97
2023-01-03T21:49:28.233Z,101681.41
2023-01-03T21:51:55.393Z,101678.72
2023-01-03T21:54:23.061Z,101679.47
2023-01-03T21:56:50.167Z,101685.59
2023-01-03T21:59:17.777Z,101680.44
2023-01-03T22:02:04.595Z,101676.00
2023-01-03T22:04:32.448Z,101691.59
2023-01-03T22:07:01.140Z,101686.34
2023-01-03T22:09:48.677Z,101693.31
2023-01-03T22:12:16.553Z,101692.56
2023-01-03T22:14:47.102Z,101694.31
2023-01-03T22:17:14.241Z,101681.41
2023-01-03T22:19:41.353Z,101686.41
2023-01-03T22:22:08.181Z,101682.19
2023-01-03T22:24:35.263Z,101684.03
2023-01-03T22:27:02.071Z,101690.19
2023-01-03T22:29:29.138Z,101683.16
2023-01-03T22:31:56.082Z,101679.47
2023-01-03T22:34:25.907Z,101684.69
2023-01-03T22:36:52.798Z,101693.56
2023-01-03T22:39:19.977Z,101688.34
2023-01-03T22:41:46.782Z,101688.50
2023-01-03T22:44:13.885Z,101698.16
2023-01-03T22:46:40.706Z,101694.69
2023-01-03T22:49:07.797Z,101687.59
2023-01-03T22:51:34.609Z,101696.44
2023-01-03T22:54:01.763Z,101696.44
2023-01-03T22:56:28.561Z,101702.66
2023-01-03T22:58:55.654Z,101703.50
2023-01-03T23:01:27.970Z,101709.53
2023-01-03T23:04:00.232Z,101707.84
2023-01-03T23:06:29.200Z,101706.09
2023-01-03T23:08:56.605Z,101708.66
2023-01-03T23:11:44.468Z,101710.56
2023-01-03T23:14:14.045Z,101707.84
2023-01-03T23:16:41.697Z,101707.91
2023-01-03T23:19:12.374Z,101701.94
2023-01-03T23:21:39.475Z,101710.91
2023-01-03T23:24:07.617Z,101702.13
2023-01-03T23:26:34.425Z,101700.47
2023-01-03T23:29:01.506Z,101702.19
2023-01-03T23:31:28.464Z,101690.25
2023-01-03T23:33:56.972Z,101685.00
2023-01-03T23:36:24.399Z,101682.72
2023-01-03T23:38:52.305Z,101675.81
2023-01-03T23:41:19.893Z,101673.19
2023-01-03T23:43:46.993Z,101679.50
2023-01-03T23:46:17.335Z,101677.88
2023-01-03T23:48:45.156Z,101682.34
2023-01-03T23:51:12.608Z,101685.00
2023-01-03T23:53:42.533Z,101690.38
2023-01-03T23:56:16.527Z,101686.72
2023-01-03T23:58:44.491Z,101694.78
